sensor_id;sensor_type;location;lat;lon;timestamp;pressure;altitude;pressure_sealevel;temperature;humidity
25156;BME280;21913;52.456;13.634;2022-12-18T00:02:46;101513.88;;;9.66;44.40
25156;BME280;21913;52.456;13.634;2022-12-18T00:07:48;101525.97;;;9.67;44.45
25156;BME280;21913;52.456;13.634;2022-12-18T00:12:49;101523.38;;;9.67;44.33
25156;BME280;21913;52.456;13.634;2022-12-18T00:17:51;101519.94;;;9.66;44.38
25156;BME280;21913;52.456;13.634;2022-12-18T00:22:53;101514.72;;;9.65;44.45
25156;BME280;21913;52.456;13.634;2022-12-18T00:27:54;101522.50;;;9.66;44.44
25156;BME280;21913;52.456;13.634;2022-12-18T00:32:57;101524.22;;;9.66;44.48
25156;BME280;21913;52.456;13.634;2022-12-18T00:37:59;101515.59;;;9.65;44.38
25156;BME280;21913;52.456;13.634;2022-12-18T00:43:01;101525.09;;;9.66;44.45
25156;BME280;21913;52.456;13.634;2022-12-18T00:48:02;101526.81;;;9.66;44.52
25156;BME280;21913;52.456;13.634;2022-12-18T00:53:04;101519.91;;;9.65;44.58
25156;BME280;21913;52.456;13.634;2022-12-18T00:58:06;101519.03;;;9.64;44.49
25156;BME280;21913;52.456;13.634;2022-12-18T01:03:09;101519.91;;;9.65;44.53
25156;BME280;21913;52.456;13.634;2022-12-18T01:08:13;101522.47;;;9.65;44.61
25156;BME280;21913;52.456;13.634;2022-12-18T01:13:17;101519.91;;;9.65;44.65
25156;BME280;21913;52.456;13.634;2022-12-18T01:18:19;101523.34;;;9.65;44.63
25156;BME280;21913;52.456;13.634;2022-12-18T01:23:20;101522.47;;;9.65;44.60
25156;BME280;21913;52.456;13.634;2022-12-18T01:28:21;101521.59;;;9.64;44.32
25156;BME280;21913;52.456;13.634;2022-12-18T01:33:23;101525.06;;;9.65;44.58
25156;BME280;21913;52.456;13.634;2022-12-18T01:38:24;101519.91;;;9.65;44.77
25156;BME280;21913;52.456;13.634;2022-12-18T01:43:57;101518.16;;;9.64;44.74
25156;BME280;21913;52.456;13.634;2022-12-18T01:49:01;101520.75;;;9.64;44.61
25156;BME280;21913;52.456;13.634;2022-12-18T01:54:02;101524.16;;;9.63;44.69
25156;BME280;21913;52.456;13.634;2022-12-18T01:59:06;101529.38;;;9.64;44.74
25156;BME280;21913;52.456;13.634;2022-12-18T02:04:28;101523.31;;;9.64;44.64
25156;BME280;21913;52.456;13.634;2022-12-18T02:09:34;101525.03;;;9.63;44.65
25156;BME280;21913;52.456;13.634;2022-12-18T02:14:42;101531.06;;;9.64;44.66
25156;BME280;21913;52.456;13.634;2022-12-18T02:30:30;101505.19;;;9.62;44.54
25156;BME280;21913;52.456;13.634;2022-12-18T02:35:33;101499.13;;;9.62;44.63
25156;BME280;21913;52.456;13.634;2022-12-18T02:40:37;101505.19;;;9.62;44.67
25156;BME280;21913;52.456;13.634;2022-12-18T02:45:50;101493.16;;;9.63;44.64
25156;BME280;21913;52.456;13.634;2022-12-18T02:51:26;101490.56;;;9.63;44.64
25156;BME280;21913;52.456;13.634;2022-12-18T02:56:48;101493.16;;;9.63;44.70
25156;BME280;21913;52.456;13.634;2022-12-18T03:02:17;101511.25;;;9.63;44.54
25156;BME280;21913;52.456;13.634;2022-12-18T03:07:27;101511.25;;;9.63;44.70
25156;BME280;21913;52.456;13.634;2022-12-18T03:12:34;101514.63;;;9.62;44.67
25156;BME280;21913;52.456;13.634;2022-12-18T03:17:41;101511.25;;;9.63;44.59
25156;BME280;21913;52.456;13.634;2022-12-18T03:22:47;101516.34;;;9.61;44.64
25156;BME280;21913;52.456;13.634;2022-12-18T03:27:54;101503.41;;;9.61;44.75
25156;BME280;21913;52.456;13.634;2022-12-18T03:33:09;101507.72;;;9.61;44.69
25156;BME280;21913;52.456;13.634;2022-12-18T03:38:15;101504.25;;;9.60;44.69
25156;BME280;21913;52.456;13.634;2022-12-18T03:44:09;101513.75;;;9.61;44.59
25156;BME280;21913;52.456;13.634;2022-12-18T03:49:13;101515.47;;;9.61;44.64
25156;BME280;21913;52.456;13.634;2022-12-18T03:54:20;101511.13;;;9.60;44.65
25156;BME280;21913;52.456;13.634;2022-12-18T03:59:30;101502.56;;;9.61;44.68
25156;BME280;21913;52.456;13.634;2022-12-18T04:04:35;101494.78;;;9.61;44.68
25156;BME280;21913;52.456;13.634;2022-12-18T04:09:39;101497.38;;;9.61;44.66
25156;BME280;21913;52.456;13.634;2022-12-18T04:14:42;101495.63;;;9.60;44.68
25156;BME280;21913;52.456;13.634;2022-12-18T04:19:44;101495.63;;;9.60;44.63
25156;BME280;21913;52.456;13.634;2022-12-18T04:24:46;101494.78;;;9.61;44.75
25156;BME280;21913;52.456;13.634;2022-12-18T04:29:58;101499.94;;;9.59;44.66
25156;BME280;21913;52.456;13.634;2022-12-18T04:35:00;101502.53;;;9.59;44.81
25156;BME280;21913;52.456;13.634;2022-12-18T04:40:03;101503.38;;;9.60;44.61
25156;BME280;21913;52.456;13.634;2022-12-18T04:45:12;101512.84;;;9.59;44.79
25156;BME280;21913;52.456;13.634;2022-12-18T04:50:13;101502.53;;;9.59;44.69
25156;BME280;21913;52.456;13.634;2022-12-18T04:55:15;101496.47;;;9.59;44.66
25156;BME280;21913;52.456;13.634;2022-12-18T05:00:17;101495.63;;;9.60;44.65
25156;BME280;21913;52.456;13.634;2022-12-18T05:05:18;101497.34;;;9.59;44.62
25156;BME280;21913;52.456;13.634;2022-12-18T05:10:20;101498.19;;;9.58;44.77
25156;BME280;21913;52.456;13.634;2022-12-18T05:15:21;101487.84;;;9.58;44.68
25156;BME280;21913;52.456;13.634;2022-12-18T05:20:23;101490.44;;;9.58;44.75
25156;BME280;21913;52.456;13.634;2022-12-18T05:25:25;101485.28;;;9.58;44.71
25156;BME280;21913;52.456;13.634;2022-12-18T05:30:26;101490.44;;;9.58;44.78
25156;BME280;21913;52.456;13.634;2022-12-18T05:35:28;101480.03;;;9.57;44.71
25156;BME280;21913;52.456;13.634;2022-12-18T05:40:29;101480.97;;;9.59;44.83
25156;BME280;21913;52.456;13.634;2022-12-18T05:45:31;101482.63;;;9.57;44.81
25156;BME280;21913;52.456;13.634;2022-12-18T05:50:36;101488.72;;;9.59;44.69
25156;BME280;21913;52.456;13.634;2022-12-18T05:55:40;101486.09;;;9.57;44.72
25156;BME280;21913;52.456;13.634;2022-12-18T06:00:44;101495.59;;;9.58;44.75
25156;BME280;21913;52.456;13.634;2022-12-18T06:05:46;101486.97;;;9.58;44.70
25156;BME280;21913;52.456;13.634;2022-12-18T06:10:52;101478.34;;;9.57;44.85
25156;BME280;21913;52.456;13.634;2022-12-18T06:15:53;101470.53;;;9.56;44.72
25156;BME280;21913;52.456;13.634;2022-12-18T06:20:56;101485.22;;;9.57;44.88
25156;BME280;21913;52.456;13.634;2022-12-18T06:25:58;101496.44;;;9.57;44.84
25156;BME280;21913;52.456;13.634;2022-12-18T06:30:59;101508.47;;;9.57;44.83
25156;BME280;21913;52.456;13.634;2022-12-18T06:36:11;101509.38;;;9.57;44.79
25156;BME280;21913;52.456;13.634;2022-12-18T06:41:16;101511.09;;;9.58;44.85
25156;BME280;21913;52.456;13.634;2022-12-18T06:46:17;101520.56;;;9.58;44.91
25156;BME280;21913;52.456;13.634;2022-12-18T06:51:21;101520.56;;;9.58;44.90
25156;BME280;21913;52.456;13.634;2022-12-18T06:56:22;101511.88;;;9.56;44.87
25156;BME280;21913;52.456;13.634;2022-12-18T07:01:24;101515.41;;;9.58;44.91
25156;BME280;21913;52.456;13.634;2022-12-18T07:06:25;101508.47;;;9.57;44.94
25156;BME280;21913;52.456;13.634;2022-12-18T07:11:27;101503.25;;;9.55;44.96
25156;BME280;21913;52.456;13.634;2022-12-18T07:16:28;101502.41;;;9.56;45.02
25156;BME280;21913;52.456;13.634;2022-12-18T07:21:30;101505.84;;;9.55;44.98
25156;BME280;21913;52.456;13.634;2022-12-18T07:26:31;101503.25;;;9.55;45.06
25156;BME280;21913;52.456;13.634;2022-12-18T07:31:33;101511.00;;;9.55;45.02
25156;BME280;21913;52.456;13.634;2022-12-18T07:36:35;101510.13;;;9.55;45.10
25156;BME280;21913;52.456;13.634;2022-12-18T07:41:36;101503.25;;;9.55;45.03
25156;BME280;21913;52.456;13.634;2022-12-18T07:46:42;101507.56;;;9.55;45.15
25156;BME280;21913;52.456;13.634;2022-12-18T07:51:44;101516.19;;;9.55;45.17
25156;BME280;21913;52.456;13.634;2022-12-18T07:56:45;101503.25;;;9.55;45.12
25156;BME280;21913;52.456;13.634;2022-12-18T08:01:47;101487.75;;;9.55;45.25
25156;BME280;21913;52.456;13.634;2022-12-18T08:06:48;101490.31;;;9.54;45.29
25156;BME280;21913;52.456;13.634;2022-12-18T08:11:50;101489.47;;;9.55;45.28
25156;BME280;21913;52.456;13.634;2022-12-18T08:16:52;101483.44;;;9.54;45.37
25156;BME280;21913;52.456;13.634;2022-12-18T08:21:54;101491.19;;;9.54;45.22
25156;BME280;21913;52.456;13.634;2022-12-18T08:26:55;101478.25;;;9.54;45.42
25156;BME280;21913;52.456;13.634;2022-12-18T08:32:13;101487.75;;;9.55;45.34
25156;BME280;21913;52.456;13.634;2022-12-18T08:37:15;101485.19;;;9.55;45.37
25156;BME280;21913;52.456;13.634;2022-12-18T08:42:16;101480.00;;;9.55;45.43
25156;BME280;21913;52.456;13.634;2022-12-18T08:47:18;101458.47;;;9.55;45.43
25156;BME280;21913;52.456;13.634;2022-12-18T08:52:19;101448.13;;;9.55;45.43
25156;BME280;21913;52.456;13.634;2022-12-18T08:57:21;101458.47;;;9.55;45.42
25156;BME280;21913;52.456;13.634;2022-12-18T09:02:22;101449.84;;;9.54;45.38
25156;BME280;21913;52.456;13.634;2022-12-18T09:07:24;101462.75;;;9.54;45.46
25156;BME280;21913;52.456;13.634;2022-12-18T09:12:25;101448.97;;;9.54;45.52
25156;BME280;21913;52.456;13.634;2022-12-18T09:17:27;101447.25;;;9.54;45.47
25156;BME280;21913;52.456;13.634;2022-12-18T09:22:28;101463.63;;;9.55;45.51
25156;BME280;21913;52.456;13.634;2022-12-18T09:27:30;101457.59;;;9.54;45.49
25156;BME280;21913;52.456;13.634;2022-12-18T09:32:31;101445.53;;;9.55;45.63
25156;BME280;21913;52.456;13.634;2022-12-18T09:37:33;101455.88;;;9.55;45.53
25156;BME280;21913;52.456;13.634;2022-12-18T09:42:34;101467.06;;;9.54;45.66
25156;BME280;21913;52.456;13.634;2022-12-18T09:47:37;101461.91;;;9.55;45.65
25156;BME280;21913;52.456;13.634;2022-12-18T09:52:43;101468.78;;;9.55;45.58
25156;BME280;21913;52.456;13.634;2022-12-18T09:57:51;101468.78;;;9.55;45.65
25156;BME280;21913;52.456;13.634;2022-12-18T10:03:01;101467.97;;;9.56;45.64
25156;BME280;21913;52.456;13.634;2022-12-18T10:13:52;101428.31;;;9.55;45.68
25156;BME280;21913;52.456;13.634;2022-12-18T10:24:23;101392.16;;;9.55;45.77
25156;BME280;21913;52.456;13.634;2022-12-18T10:29:27;101405.94;;;9.56;45.87
25156;BME280;21913;52.456;13.634;2022-12-18T10:34:29;101404.19;;;9.55;45.87
25156;BME280;21913;52.456;13.634;2022-12-18T10:39:30;101384.41;;;9.55;45.88
25156;BME280;21913;52.456;13.634;2022-12-18T10:44:32;101372.34;;;9.56;45.96
25156;BME280;21913;52.456;13.634;2022-12-18T10:49:34;101371.47;;;9.55;45.96
25156;BME280;21913;52.456;13.634;2022-12-18T10:54:37;101358.56;;;9.55;46.05
25156;BME280;21913;52.456;13.634;2022-12-18T10:59:51;101338.75;;;9.56;46.03
25156;BME280;21913;52.456;13.634;2022-12-18T11:04:53;101349.97;;;9.56;46.06
25156;BME280;21913;52.456;13.634;2022-12-18T11:10:01;101337.91;;;9.57;46.09
25156;BME280;21913;52.456;13.634;2022-12-18T11:15:02;101317.25;;;9.57;46.14
25156;BME280;21913;52.456;13.634;2022-12-18T11:25:28;101304.31;;;9.55;46.20
25156;BME280;21913;52.456;13.634;2022-12-18T11:30:34;101312.09;;;9.57;46.17
25156;BME280;21913;52.456;13.634;2022-12-18T11:40:43;101286.25;;;9.57;46.35
25156;BME280;21913;52.456;13.634;2022-12-18T11:45:51;101284.59;;;9.59;46.39
25156;BME280;21913;52.456;13.634;2022-12-18T11:50:59;101270.81;;;9.58;46.32
25156;BME280;21913;52.456;13.634;2022-12-18T11:56:32;101263.06;;;9.58;46.26
25156;BME280;21913;52.456;13.634;2022-12-18T12:28:28;101226.75;;;9.54;45.95
25156;BME280;21913;52.456;13.634;2022-12-18T12:33:47;101236.22;;;9.53;46.25
25156;BME280;21913;52.456;13.634;2022-12-18T12:38:56;101236.34;;;9.58;46.08
25156;BME280;21913;52.456;13.634;2022-12-18T12:44:02;101239.81;;;9.60;46.08
25156;BME280;21913;52.456;13.634;2022-12-18T12:49:15;101205.38;;;9.59;46.10
25156;BME280;21913;52.456;13.634;2022-12-18T12:54:23;101195.00;;;9.58;46.34
25156;BME280;21913;52.456;13.634;2022-12-18T13:04:59;101180.31;;;9.57;46.27
25156;BME280;21913;52.456;13.634;2022-12-18T13:15:37;101161.41;;;9.58;46.57
25156;BME280;21913;52.456;13.634;2022-12-18T13:20:47;101167.38;;;9.57;46.48
25156;BME280;21913;52.456;13.634;2022-12-18T13:30:56;101151.88;;;9.57;46.56
25156;BME280;21913;52.456;13.634;2022-12-18T13:36:26;101151.88;;;9.57;46.56
25156;BME280;21913;52.456;13.634;2022-12-18T13:41:28;101154.34;;;9.51;46.34
25156;BME280;21913;52.456;13.634;2022-12-18T13:46:45;101143.69;;;9.35;44.77
25156;BME280;21913;52.456;13.634;2022-12-18T13:51:49;101132.38;;;9.30;44.42
25156;BME280;21913;52.456;13.634;2022-12-18T13:56:51;101138.44;;;9.32;44.48
25156;BME280;21913;52.456;13.634;2022-12-18T14:01:55;101133.38;;;9.37;44.53
25156;BME280;21913;52.456;13.634;2022-12-18T14:07:11;101138.66;;;9.41;44.82
25156;BME280;21913;52.456;13.634;2022-12-18T14:12:33;101137.84;;;9.44;44.84
25156;BME280;21913;52.456;13.634;2022-12-18T14:17:36;101129.25;;;9.45;44.99
25156;BME280;21913;52.456;13.634;2022-12-18T14:22:37;101119.84;;;9.47;45.07
25156;BME280;21913;52.456;13.634;2022-12-18T14:28:30;101130.19;;;9.48;45.17
25156;BME280;21913;52.456;13.634;2022-12-18T14:38:33;101124.19;;;9.49;45.40
25156;BME280;21913;52.456;13.634;2022-12-18T14:43:37;101122.47;;;9.50;45.51
25156;BME280;21913;52.456;13.634;2022-12-18T14:48:41;101108.69;;;9.49;45.59
25156;BME280;21913;52.456;13.634;2022-12-18T14:59:02;101097.50;;;9.51;45.65
25156;BME280;21913;52.456;13.634;2022-12-18T15:04:24;101080.28;;;9.51;45.80
25156;BME280;21913;52.456;13.634;2022-12-18T15:09:26;101085.47;;;9.51;45.89
25156;BME280;21913;52.456;13.634;2022-12-18T15:19:34;101072.53;;;9.51;45.99
25156;BME280;21913;52.456;13.634;2022-12-18T15:24:36;101075.13;;;9.51;46.00
25156;BME280;21913;52.456;13.634;2022-12-18T15:29:38;101057.03;;;9.51;46.04
25156;BME280;21913;52.456;13.634;2022-12-18T15:34:40;101045.03;;;9.52;46.11
25156;BME280;21913;52.456;13.634;2022-12-18T15:39:41;101032.97;;;9.52;46.16
25156;BME280;21913;52.456;13.634;2022-12-18T15:44:43;101024.34;;;9.52;46.16
25156;BME280;21913;52.456;13.634;2022-12-18T15:49:44;101008.00;;;9.53;46.16
25156;BME280;21913;52.456;13.634;2022-12-18T15:54:46;101000.25;;;9.53;46.20
25156;BME280;21913;52.456;13.634;2022-12-18T15:59:47;101001.13;;;9.53;46.17
25156;BME280;21913;52.456;13.634;2022-12-18T16:04:51;100994.22;;;9.52;46.37
25156;BME280;21913;52.456;13.634;2022-12-18T16:09:53;100989.91;;;9.53;46.34
25156;BME280;21913;52.456;13.634;2022-12-18T16:14:54;100966.66;;;9.53;46.30
25156;BME280;21913;52.456;13.634;2022-12-18T16:19:56;100973.56;;;9.54;46.23
25156;BME280;21913;52.456;13.634;2022-12-18T16:24:57;100963.22;;;9.52;46.33
25156;BME280;21913;52.456;13.634;2022-12-18T16:29:59;100968.41;;;9.54;46.29
25156;BME280;21913;52.456;13.634;2022-12-18T16:35:00;100968.41;;;9.54;46.40
25156;BME280;21913;52.456;13.634;2022-12-18T16:40:02;100967.53;;;9.53;46.50
25156;BME280;21913;52.456;13.634;2022-12-18T16:45:05;100955.50;;;9.54;46.44
25156;BME280;21913;52.456;13.634;2022-12-18T16:50:07;100959.81;;;9.55;46.52
25156;BME280;21913;52.456;13.634;2022-12-18T16:55:09;100971.84;;;9.54;46.60
25156;BME280;21913;52.456;13.634;2022-12-18T17:00:11;100977.91;;;9.55;46.64
25156;BME280;21913;52.456;13.634;2022-12-18T17:05:13;100977.91;;;9.55;46.66
25156;BME280;21913;52.456;13.634;2022-12-18T17:10:15;100961.53;;;9.54;46.69
25156;BME280;21913;52.456;13.634;2022-12-18T17:15:16;100958.94;;;9.54;46.61
25156;BME280;21913;52.456;13.634;2022-12-18T17:20:18;100973.28;;;9.40;45.48
25156;BME280;21913;52.456;13.634;2022-12-18T17:25:19;100972.19;;;9.27;45.24
25156;BME280;21913;52.456;13.634;2022-12-18T17:30:21;100955.97;;;9.34;45.71
25156;BME280;21913;52.456;13.634;2022-12-18T17:35:22;100969.25;;;9.53;46.07
25156;BME280;21913;52.456;13.634;2022-12-18T17:40:24;100960.13;;;9.71;46.42
25156;BME280;21913;52.456;13.634;2022-12-18T17:45:25;100975.91;;;9.88;46.54
25156;BME280;21913;52.456;13.634;2022-12-18T17:50:27;100963.25;;;10.02;46.49
25156;BME280;21913;52.456;13.634;2022-12-18T17:55:28;100963.44;;;10.13;46.74
25156;BME280;21913;52.456;13.634;2022-12-18T18:00:30;100968.81;;;10.23;46.83
25156;BME280;21913;52.456;13.634;2022-12-18T18:05:32;100968.06;;;10.31;46.83
25156;BME280;21913;52.456;13.634;2022-12-18T18:10:38;100966.47;;;10.39;46.69
25156;BME280;21913;52.456;13.634;2022-12-18T18:15:40;100957.94;;;10.44;46.84
25156;BME280;21913;52.456;13.634;2022-12-18T18:20:41;100936.41;;;10.48;46.82
25156;BME280;21913;52.456;13.634;2022-12-18T18:25:43;100941.66;;;10.51;46.83
25156;BME280;21913;52.456;13.634;2022-12-18T18:30:44;100945.13;;;10.53;46.86
25156;BME280;21913;52.456;13.634;2022-12-18T18:35:46;100952.91;;;10.55;46.91
25156;BME280;21913;52.456;13.634;2022-12-18T18:41:02;100933.09;;;10.57;46.85
25156;BME280;21913;52.456;13.634;2022-12-18T18:46:04;100928.78;;;10.58;46.78
25156;BME280;21913;52.456;13.634;2022-12-18T18:51:14;100934.84;;;10.60;46.87
25156;BME280;21913;52.456;13.634;2022-12-18T18:56:18;100945.19;;;10.60;46.96
25156;BME280;21913;52.456;13.634;2022-12-18T19:01:40;100949.56;;;10.61;46.90
25156;BME280;21913;52.456;13.634;2022-12-18T19:06:42;100952.13;;;10.61;46.94
25156;BME280;21913;52.456;13.634;2022-12-18T19:11:44;100957.31;;;10.61;46.96
25156;BME280;21913;52.456;13.634;2022-12-18T19:16:45;100976.25;;;10.60;46.88
25156;BME280;21913;52.456;13.634;2022-12-18T19:21:47;100973.66;;;10.60;46.96
25156;BME280;21913;52.456;13.634;2022-12-18T19:26:48;100967.59;;;10.58;47.06
25156;BME280;21913;52.456;13.634;2022-12-18T19:31:50;100971.91;;;10.56;47.11
25156;BME280;21913;52.456;13.634;2022-12-18T19:36:51;100977.06;;;10.56;47.05
25156;BME280;21913;52.456;13.634;2022-12-18T19:41:55;100972.72;;;10.54;47.10
25156;BME280;21913;52.456;13.634;2022-12-18T19:46:58;100977.91;;;10.54;47.11
25156;BME280;21913;52.456;13.634;2022-12-18T19:52:00;100975.31;;;10.54;47.22
25156;BME280;21913;52.456;13.634;2022-12-18T19:57:01;100962.34;;;10.53;47.18
25156;BME280;21913;52.456;13.634;2022-12-18T20:02:03;100958.03;;;10.52;47.14
25156;BME280;21913;52.456;13.634;2022-12-18T20:07:04;100972.69;;;10.51;47.19
25156;BME280;21913;52.456;13.634;2022-12-18T20:12:06;100975.28;;;10.51;47.14
25156;BME280;21913;52.456;13.634;2022-12-18T20:17:08;100984.75;;;10.49;47.25
25156;BME280;21913;52.456;13.634;2022-12-18T20:22:09;100978.69;;;10.49;47.26
25156;BME280;21913;52.456;13.634;2022-12-18T20:27:11;100969.19;;;10.48;47.46
25156;BME280;21913;52.456;13.634;2022-12-18T20:32:15;100969.16;;;10.46;47.36
25156;BME280;21913;52.456;13.634;2022-12-18T20:37:16;100969.19;;;10.48;47.40
25156;BME280;21913;52.456;13.634;2022-12-18T20:42:18;100964.00;;;10.46;47.34
25156;BME280;21913;52.456;13.634;2022-12-18T20:47:19;100954.50;;;10.45;47.32
25156;BME280;21913;52.456;13.634;2022-12-18T20:52:21;100945.00;;;10.44;47.39
25156;BME280;21913;52.456;13.634;2022-12-18T20:57:23;100953.63;;;10.45;47.47
25156;BME280;21913;52.456;13.634;2022-12-18T21:02:24;100950.13;;;10.43;47.54
25156;BME280;21913;52.456;13.634;2022-12-18T21:07:26;100955.28;;;10.41;47.53
25156;BME280;21913;52.456;13.634;2022-12-18T21:12:27;100950.97;;;10.40;47.36
25156;BME280;21913;52.456;13.634;2022-12-18T21:17:29;100948.38;;;10.40;47.59
25156;BME280;21913;52.456;13.634;2022-12-18T21:22:30;100963.03;;;10.40;47.58
25156;BME280;21913;52.456;13.634;2022-12-18T21:27:34;100957.84;;;10.40;47.54
25156;BME280;21913;52.456;13.634;2022-12-18T21:32:36;100962.16;;;10.39;47.65
25156;BME280;21913;52.456;13.634;2022-12-18T21:37:37;100965.56;;;10.38;47.64
25156;BME280;21913;52.456;13.634;2022-12-18T21:42:39;100967.28;;;10.38;47.66
25156;BME280;21913;52.456;13.634;2022-12-18T21:47:40;100969.00;;;10.37;47.69
25156;BME280;21913;52.456;13.634;2022-12-18T21:52:42;100966.41;;;10.36;47.73
25156;BME280;21913;52.456;13.634;2022-12-18T21:57:43;100955.19;;;10.35;47.59
25156;BME280;21913;52.456;13.634;2022-12-18T22:02:45;100954.31;;;10.35;47.54
25156;BME280;21913;52.456;13.634;2022-12-18T22:07:47;100943.97;;;10.35;47.76
25156;BME280;21913;52.456;13.634;2022-12-18T22:12:48;100932.78;;;10.34;47.60
25156;BME280;21913;52.456;13.634;2022-12-18T22:17:52;100926.69;;;10.32;47.62
25156;BME280;21913;52.456;13.634;2022-12-18T22:22:54;100920.63;;;10.32;47.76
25156;BME280;21913;52.456;13.634;2022-12-18T22:27:55;100905.09;;;10.30;47.80
25156;BME280;21913;52.456;13.634;2022-12-18T22:32:57;100904.25;;;10.30;47.79
25156;BME280;21913;52.456;13.634;2022-12-18T22:37:58;100908.53;;;10.29;47.83
25156;BME280;21913;52.456;13.634;2022-12-18T22:43:00;100895.59;;;10.27;47.88
25156;BME280;21913;52.456;13.634;2022-12-18T22:48:01;100889.53;;;10.27;47.78
25156;BME280;21913;52.456;13.634;2022-12-18T22:53:03;100900.78;;;10.27;47.95
25156;BME280;21913;52.456;13.634;2022-12-18T22:58:04;100890.38;;;10.26;47.98
25156;BME280;21913;52.456;13.634;2022-12-18T23:03:06;100902.44;;;10.25;48.09
25156;BME280;21913;52.456;13.634;2022-12-18T23:08:07;100898.13;;;10.24;48.00
25156;BME280;21913;52.456;13.634;2022-12-18T23:13:09;100889.50;;;10.24;48.09
25156;BME280;21913;52.456;13.634;2022-12-18T23:18:10;100887.72;;;10.23;48.18
25156;BME280;21913;52.456;13.634;2022-12-18T23:23:12;100873.03;;;10.22;48.13
25156;BME280;21913;52.456;13.634;2022-12-18T23:28:13;100868.72;;;10.21;48.18
25156;BME280;21913;52.456;13.634;2022-12-18T23:33:15;100867.84;;;10.20;48.12
25156;BME280;21913;52.456;13.634;2022-12-18T23:38:16;100860.97;;;10.21;48.20
25156;BME280;21913;52.456;13.634;2022-12-18T23:43:18;100860.09;;;10.20;48.30
25156;BME280;21913;52.456;13.634;2022-12-18T23:48:19;100854.06;;;10.20;48.36
25156;BME280;21913;52.456;13.634;2022-12-18T23:53:21;100846.28;;;10.20;48.39
25156;BME280;21913;52.456;13.634;2022-12-18T23:58:22;100837.66;;;10.18;48.50
